McGrath, Alaska
Current Conditions -  °F | °C
As of 4:53 PM on Thursday 20 Nov 2014 (Local Time) from PAMC Reporting Station
Overcast Overcast  
Wind Chill: 30°   Ceiling: 12000
Heat Index: 30°   Visibility: 10mi
Dew Point: 19°   Wind: 0mph
Humidity: 64%   Direction: NA
Pressure: 29.2"   Gusts: NA
Location:  62.96°N, 155.6°W
Report Text: PAMC 210153Z AUTO 00000KT 10SM OVC120 M01/M07 A2920 RMK AO2 SLP893 T10111072 TSNO
Loading
Personal Weather Stations






























Interactive Weather Map New forecast layout! Learn more

10-Day Weather Forecast

Advertisements
Track Severe Weather on mobile